createdAt,value
2023-05-23T00:00:15.502Z,14.00
2023-05-23T00:04:20.335Z,13.48
2023-05-23T00:08:23.391Z,14.73
2023-05-23T00:12:27.789Z,12.48
2023-05-23T00:16:31.331Z,14.52
2023-05-23T00:20:35.531Z,12.20
2023-05-23T00:24:38.441Z,11.15
2023-05-23T00:28:42.649Z,11.70
2023-05-23T00:32:45.610Z,12.70
2023-05-23T00:36:50.395Z,13.88
2023-05-23T00:40:53.886Z,12.73
2023-05-23T00:44:58.103Z,14.70
2023-05-23T00:49:00.980Z,16.40
2023-05-23T00:53:04.243Z,16.83
2023-05-23T00:57:07.964Z,14.50
2023-05-23T01:01:12.212Z,14.85
2023-05-23T01:05:17.620Z,15.55
2023-05-23T01:09:21.915Z,12.80
2023-05-23T01:13:32.660Z,13.73
2023-05-23T01:17:45.208Z,14.50
2023-05-23T01:21:53.031Z,14.00
2023-05-23T01:26:08.893Z,15.27
2023-05-23T01:30:14.914Z,16.67
2023-05-23T01:34:19.973Z,15.73
2023-05-23T01:38:22.845Z,15.75
2023-05-23T01:42:28.060Z,19.35
2023-05-23T01:46:33.882Z,18.92
2023-05-23T01:50:37.408Z,17.48
2023-05-23T01:54:42.530Z,17.00
2023-05-23T01:58:46.551Z,16.27
2023-05-23T02:02:51.043Z,16.35
2023-05-23T02:06:54.170Z,16.33
2023-05-23T02:10:58.201Z,16.35
2023-05-23T02:15:01.164Z,18.55
2023-05-23T02:19:05.491Z,20.17
2023-05-23T02:23:08.338Z,19.77
2023-05-23T02:27:12.985Z,18.10
2023-05-23T02:31:17.338Z,18.70
2023-05-23T02:35:21.870Z,22.80
2023-05-23T02:39:25.719Z,26.27
2023-05-23T02:43:29.125Z,21.15
2023-05-23T02:47:32.108Z,17.48
2023-05-23T02:51:36.391Z,20.83
2023-05-23T02:55:39.579Z,19.00
2023-05-23T02:59:42.727Z,23.83
2023-05-23T03:03:45.784Z,24.75
2023-05-23T03:07:51.976Z,18.55
2023-05-23T03:11:54.898Z,22.05
2023-05-23T03:15:57.758Z,25.88
2023-05-23T03:20:00.609Z,24.40
2023-05-23T03:24:04.903Z,22.77
2023-05-23T03:28:07.813Z,24.98
2023-05-23T03:32:10.702Z,26.88
2023-05-23T03:36:13.562Z,28.08
2023-05-23T03:40:18.661Z,27.05
2023-05-23T03:44:22.078Z,26.98
2023-05-23T03:48:25.081Z,26.08
2023-05-23T03:52:28.127Z,30.42
2023-05-23T03:56:32.408Z,39.33
2023-05-23T04:00:35.507Z,26.92
2023-05-23T04:04:41.287Z,24.37
2023-05-23T04:08:45.251Z,25.33
2023-05-23T04:12:49.666Z,25.08
2023-05-23T04:16:54.159Z,27.85
2023-05-23T04:20:57.295Z,29.30
2023-05-23T04:25:00.785Z,24.15
2023-05-23T04:29:09.029Z,27.30
2023-05-23T04:33:13.413Z,26.40
2023-05-23T04:37:17.398Z,31.02
2023-05-23T04:41:23.622Z,28.35
2023-05-23T04:45:44.101Z,29.27
2023-05-23T04:50:08.603Z,30.10
2023-05-23T04:54:12.332Z,24.85
2023-05-23T04:58:16.478Z,25.00
2023-05-23T05:02:21.127Z,24.63
2023-05-23T05:06:24.088Z,24.67
2023-05-23T05:10:28.218Z,25.90
2023-05-23T05:14:32.097Z,29.23
2023-05-23T05:18:37.510Z,29.25
2023-05-23T05:23:38.061Z,31.77
2023-05-23T05:27:43.697Z,27.83
2023-05-23T05:31:49.268Z,28.48
2023-05-23T05:35:53.467Z,26.50
2023-05-23T05:39:57.206Z,30.73
2023-05-23T05:44:00.723Z,25.33
2023-05-23T05:48:04.128Z,22.90
2023-05-23T05:52:09.842Z,25.88
2023-05-23T05:56:13.566Z,23.02
2023-05-23T06:00:19.061Z,23.10
2023-05-23T06:04:22.032Z,22.70
2023-05-23T06:08:27.364Z,27.15
2023-05-23T06:12:30.321Z,19.30
2023-05-23T06:16:33.308Z,22.65
2023-05-23T06:20:36.242Z,19.77
2023-05-23T06:24:43.931Z,24.48
2023-05-23T06:28:46.785Z,19.40
2023-05-23T06:32:50.003Z,19.65
2023-05-23T06:36:54.722Z,22.23
2023-05-23T06:40:58.963Z,20.38
2023-05-23T06:45:02.445Z,23.80
2023-05-23T06:49:14.458Z,27.95
2023-05-23T06:53:19.653Z,21.20
2023-05-23T06:57:25.912Z,25.10
2023-05-23T07:01:28.807Z,26.25
2023-05-23T07:05:33.387Z,27.48
2023-05-23T07:09:36.608Z,28.52
2023-05-23T07:13:47.303Z,25.70
2023-05-23T07:17:57.629Z,22.55
2023-05-23T07:22:02.286Z,26.45
2023-05-23T07:26:06.609Z,26.63
2023-05-23T07:30:33.379Z,25.67
2023-05-23T07:34:36.855Z,26.73
2023-05-23T07:38:39.977Z,29.40
2023-05-23T07:42:42.890Z,30.25
2023-05-23T07:46:47.248Z,31.23
2023-05-23T07:50:54.942Z,29.63
2023-05-23T07:54:59.520Z,28.55
2023-05-23T07:59:03.735Z,29.60
2023-05-23T08:03:08.273Z,27.65
2023-05-23T08:07:19.421Z,26.90
2023-05-23T08:11:28.732Z,26.33
2023-05-23T08:15:31.837Z,32.90
2023-05-23T08:19:45.296Z,30.13
2023-05-23T08:23:48.386Z,25.00
2023-05-23T08:27:51.349Z,25.33
2023-05-23T08:32:11.899Z,26.92
2023-05-23T08:36:16.760Z,28.52
2023-05-23T08:40:24.538Z,28.50
2023-05-23T08:44:35.162Z,28.17
2023-05-23T08:48:40.140Z,26.27
2023-05-23T08:52:51.550Z,29.25
2023-05-23T08:56:54.736Z,30.95
2023-05-23T09:00:58.857Z,28.95
2023-05-23T09:05:02.571Z,24.42
2023-05-23T09:09:07.305Z,28.13
2023-05-23T09:13:10.680Z,31.23
2023-05-23T09:17:27.874Z,25.60
2023-05-23T09:25:57.436Z,31.67
2023-05-23T09:30:07.258Z,36.17
2023-05-23T09:34:10.876Z,29.58
2023-05-23T09:38:15.050Z,34.20
2023-05-23T09:42:23.582Z,33.90
2023-05-23T09:46:30.000Z,32.55
2023-05-23T09:50:34.384Z,31.67
2023-05-23T09:54:38.842Z,29.80
2023-05-23T09:58:46.581Z,30.48
2023-05-23T10:02:56.832Z,27.77
2023-05-23T10:07:06.937Z,27.88
2023-05-23T10:11:51.890Z,36.97
2023-05-23T10:16:01.364Z,34.45
2023-05-23T10:20:08.381Z,39.28
2023-05-23T10:24:12.541Z,41.85
2023-05-23T10:28:16.480Z,31.20
2023-05-23T10:32:21.603Z,38.03
2023-05-23T10:36:30.820Z,29.13
2023-05-23T10:40:44.286Z,29.10
2023-05-23T10:44:47.103Z,26.42
2023-05-23T10:48:57.730Z,31.08
2023-05-23T10:53:01.178Z,30.38
2023-05-23T10:57:05.012Z,24.98
2023-05-23T11:01:14.085Z,24.88
2023-05-23T11:05:25.091Z,25.40
2023-05-23T11:09:28.026Z,20.08
2023-05-23T11:13:56.269Z,19.98
2023-05-23T11:17:59.533Z,15.57
2023-05-23T11:22:06.134Z,17.55
2023-05-23T11:26:30.475Z,18.70
2023-05-23T11:30:33.743Z,14.95
2023-05-23T11:34:36.586Z,16.27
2023-05-23T11:38:40.904Z,16.08
2023-05-23T11:42:44.450Z,13.80
2023-05-23T11:47:00.488Z,16.10
2023-05-23T11:51:03.783Z,16.08
2023-05-23T11:55:10.819Z,11.63
2023-05-23T11:59:13.748Z,10.73
2023-05-23T12:03:16.841Z,11.60
2023-05-23T12:07:20.845Z,11.70
2023-05-23T12:11:26.251Z,10.82
2023-05-23T12:15:31.536Z,15.85
2023-05-23T12:19:34.662Z,13.10
2023-05-23T12:23:37.636Z,11.57
2023-05-23T12:27:44.271Z,11.27
2023-05-23T12:31:50.314Z,14.75
2023-05-23T12:35:54.642Z,18.00
2023-05-23T12:39:57.536Z,15.75
2023-05-23T12:44:03.358Z,12.02
2023-05-23T12:48:07.111Z,12.77
2023-05-23T12:52:10.126Z,12.35
2023-05-23T12:56:13.033Z,11.38
2023-05-23T13:00:17.952Z,11.75
2023-05-23T13:04:21.010Z,10.40
2023-05-23T13:08:24.096Z,12.23
2023-05-23T13:12:27.050Z,14.05
2023-05-23T13:16:31.502Z,18.05
2023-05-23T13:20:34.835Z,11.98
2023-05-23T13:24:38.149Z,12.80
2023-05-23T13:28:41.016Z,11.20
2023-05-23T13:32:45.430Z,12.30
2023-05-23T13:36:48.318Z,12.60
2023-05-23T13:40:51.741Z,16.33
2023-05-23T13:44:54.730Z,13.07
2023-05-23T13:48:58.945Z,14.55
2023-05-23T13:53:01.857Z,15.32
2023-05-23T13:57:04.974Z,12.10
2023-05-23T14:01:12.504Z,12.73
2023-05-23T14:05:19.409Z,17.38
2023-05-23T14:13:46.987Z,15.35
2023-05-23T14:17:55.172Z,11.07
2023-05-23T14:21:59.431Z,14.80
2023-05-23T14:26:02.315Z,13.55
2023-05-23T14:30:06.104Z,11.10
2023-05-23T14:34:08.956Z,15.88
2023-05-23T14:38:13.220Z,19.23
2023-05-23T14:42:16.129Z,10.82
2023-05-23T14:46:19.181Z,13.32
2023-05-23T14:50:22.161Z,11.00
2023-05-23T14:54:26.536Z,11.13
2023-05-23T14:58:29.415Z,19.05
2023-05-23T15:02:32.386Z,21.23
2023-05-23T15:06:35.477Z,12.13
2023-05-23T15:10:39.824Z,18.05
2023-05-23T15:14:43.619Z,15.18
2023-05-23T15:18:46.614Z,19.08
2023-05-23T15:22:49.502Z,14.27
2023-05-23T15:26:54.089Z,20.52
2023-05-23T15:35:01.935Z,13.20
2023-05-23T15:39:06.203Z,14.30
2023-05-23T15:43:10.407Z,9.40
2023-05-23T15:47:13.259Z,21.02
2023-05-23T15:51:16.423Z,16.73
2023-05-23T15:55:19.449Z,10.50
2023-05-23T15:59:23.637Z,11.63
2023-05-23T16:03:26.843Z,12.30
2023-05-23T16:07:29.761Z,8.50
2023-05-23T16:11:32.691Z,11.25
2023-05-23T16:15:37.090Z,11.23
2023-05-23T16:19:40.062Z,12.20
2023-05-23T16:23:42.998Z,11.55
2023-05-23T16:27:45.896Z,9.93
2023-05-23T16:31:50.166Z,9.77
2023-05-23T16:35:53.180Z,8.82
2023-05-23T16:39:56.064Z,7.88
2023-05-23T16:43:58.907Z,10.65
2023-05-23T16:48:03.198Z,7.40
2023-05-23T16:52:06.382Z,8.45
2023-05-23T16:56:09.253Z,6.40
2023-05-23T17:00:13.281Z,6.30
2023-05-23T17:04:20.229Z,10.65
2023-05-23T17:08:23.359Z,5.82
2023-05-23T17:12:26.929Z,6.40
2023-05-23T17:16:33.261Z,7.20
2023-05-23T17:20:38.021Z,6.38
2023-05-23T17:24:40.959Z,8.80
2023-05-23T17:28:43.857Z,8.27
2023-05-23T17:32:47.835Z,4.32
2023-05-23T17:36:52.785Z,5.70
2023-05-23T17:40:55.652Z,6.07
2023-05-23T17:44:58.935Z,5.28
2023-05-23T17:49:01.798Z,4.53
2023-05-23T17:53:06.254Z,8.13
2023-05-23T17:57:09.093Z,6.93
2023-05-23T18:01:15.825Z,4.55
2023-05-23T18:05:20.362Z,5.00
2023-05-23T18:09:24.575Z,6.65
2023-05-23T18:13:27.428Z,5.03
2023-05-23T18:17:30.572Z,8.02
2023-05-23T18:21:34.732Z,3.80
2023-05-23T18:25:39.064Z,3.47
2023-05-23T18:29:41.977Z,7.18
2023-05-23T18:33:44.913Z,3.03
2023-05-23T18:37:48.026Z,4.32
2023-05-23T18:41:52.353Z,8.48
2023-05-23T18:45:55.239Z,5.47
2023-05-23T18:49:58.066Z,2.63
2023-05-23T18:54:01.037Z,4.53
2023-05-23T18:58:05.332Z,6.03
2023-05-23T19:02:08.359Z,3.63
2023-05-23T19:06:11.603Z,4.35
2023-05-23T19:10:14.476Z,3.53
2023-05-23T19:14:18.731Z,3.63
2023-05-23T19:18:21.727Z,6.15
2023-05-23T19:22:24.991Z,3.47
2023-05-23T19:26:28.645Z,5.55
2023-05-23T19:30:32.893Z,7.70
2023-05-23T19:34:36.249Z,9.75
2023-05-23T19:38:39.121Z,4.47
2023-05-23T19:42:42.128Z,7.22
2023-05-23T19:46:46.381Z,4.18
2023-05-23T19:50:49.261Z,6.38
2023-05-23T19:54:52.101Z,5.00
2023-05-23T19:58:54.985Z,7.22
2023-05-23T20:02:59.222Z,6.40
2023-05-23T20:07:02.132Z,7.00
2023-05-23T20:11:05.104Z,6.22
2023-05-23T20:15:08.963Z,7.00
2023-05-23T20:19:13.257Z,4.05
2023-05-23T20:23:16.184Z,4.40
2023-05-23T20:27:19.095Z,6.75
2023-05-23T20:31:22.094Z,4.35
2023-05-23T20:35:26.841Z,4.38
2023-05-23T20:39:29.896Z,4.90
2023-05-23T20:43:33.357Z,5.22
2023-05-23T20:47:37.410Z,6.43
2023-05-23T20:51:41.802Z,5.95
2023-05-23T20:55:44.689Z,4.90
2023-05-23T20:59:47.548Z,5.20
2023-05-23T21:03:50.510Z,9.95
2023-05-23T21:07:54.714Z,7.30
2023-05-23T21:11:58.286Z,7.88
2023-05-23T21:16:01.155Z,6.13
2023-05-23T21:20:05.553Z,4.95
2023-05-23T21:24:09.973Z,6.88
2023-05-23T21:28:12.793Z,6.57
2023-05-23T21:32:16.187Z,7.75
2023-05-23T21:36:19.010Z,6.38
2023-05-23T21:40:25.227Z,6.45
2023-05-23T21:44:28.114Z,4.95
2023-05-23T21:48:30.916Z,6.75
2023-05-23T21:52:33.772Z,6.00
2023-05-23T21:56:38.008Z,6.32
2023-05-23T22:00:43.503Z,10.27
2023-05-23T22:04:46.489Z,5.77
2023-05-23T22:08:49.349Z,4.97
2023-05-23T22:12:53.548Z,5.03
2023-05-23T22:16:59.005Z,4.80
2023-05-23T22:21:01.881Z,6.80
2023-05-23T22:25:05.170Z,8.80
2023-05-23T22:29:09.383Z,7.13
2023-05-23T22:33:13.229Z,5.72
2023-05-23T22:37:16.855Z,4.95
2023-05-23T22:41:19.955Z,4.75
2023-05-23T22:45:24.241Z,4.82
2023-05-23T22:49:29.892Z,6.25
2023-05-23T22:53:32.741Z,9.27
2023-05-23T22:57:35.624Z,7.97
2023-05-23T23:01:39.964Z,5.97
2023-05-23T23:05:42.917Z,5.57
2023-05-23T23:09:46.078Z,4.75
2023-05-23T23:13:48.954Z,6.85
2023-05-23T23:17:53.253Z,6.18
2023-05-23T23:21:56.205Z,6.28
2023-05-23T23:25:59.542Z,5.22
2023-05-23T23:30:02.575Z,8.52
2023-05-23T23:34:06.841Z,5.38
2023-05-23T23:38:09.691Z,4.90
2023-05-23T23:42:12.942Z,4.75
2023-05-23T23:46:16.574Z,5.05
2023-05-23T23:50:21.391Z,4.80
2023-05-23T23:54:24.255Z,5.32
2023-05-23T23:58:27.128Z,7.80
